createdAt,value
2018-01-05T00:01:40.040Z,1.20
2018-01-05T00:04:09.676Z,1.27
2018-01-05T00:06:38.135Z,1.00
2018-01-05T00:09:06.550Z,0.90
2018-01-05T00:11:35.899Z,3.50
2018-01-05T00:14:04.078Z,2.23
2018-01-05T00:16:35.411Z,0.67
2018-01-05T00:19:04.444Z,0.80
2018-01-05T00:21:33.517Z,2.00
2018-01-05T00:24:02.042Z,1.10
2018-01-05T00:26:30.997Z,1.27
2018-01-05T00:28:59.319Z,6.53
2018-01-05T00:31:28.737Z,0.70
2018-01-05T00:33:56.927Z,3.83
2018-01-05T00:36:26.552Z,2.10
2018-01-05T00:38:54.878Z,1.97
2018-01-05T00:41:23.580Z,1.60
2018-01-05T00:43:52.411Z,1.07
2018-01-05T00:46:20.978Z,0.60
2018-01-05T00:48:50.577Z,0.90
2018-01-05T00:51:19.341Z,1.00
2018-01-05T00:53:48.046Z,0.50
2018-01-05T00:56:17.517Z,0.60
2018-01-05T00:58:47.133Z,0.50
2018-01-05T01:01:17.438Z,0.60
2018-01-05T01:03:45.732Z,2.90
2018-01-05T01:06:15.378Z,0.60
2018-01-05T01:08:44.298Z,2.20
2018-01-05T01:11:13.089Z,0.70
2018-01-05T01:13:42.013Z,1.03
2018-01-05T01:16:11.094Z,0.90
2018-01-05T01:18:40.919Z,2.93
2018-01-05T01:21:09.641Z,2.17
2018-01-05T01:23:38.920Z,7.43
2018-01-05T01:26:07.568Z,0.50
2018-01-05T01:28:36.653Z,0.60
2018-01-05T01:31:05.828Z,0.50
2018-01-05T01:33:34.877Z,0.60
2018-01-05T01:36:04.366Z,1.13
2018-01-05T01:38:32.580Z,2.20
2018-01-05T01:41:03.443Z,2.20
2018-01-05T01:43:32.834Z,1.63
2018-01-05T01:46:01.716Z,1.83
2018-01-05T01:48:30.988Z,0.70
2018-01-05T01:51:00.121Z,2.10
2018-01-05T01:53:29.343Z,2.30
2018-01-05T01:55:59.271Z,0.60
2018-01-05T01:58:28.154Z,1.00
2018-01-05T02:00:57.824Z,0.70
2018-01-05T02:03:27.069Z,6.33
2018-01-05T02:05:56.099Z,3.03
2018-01-05T02:08:25.019Z,6.70
2018-01-05T02:10:55.290Z,4.33
2018-01-05T02:13:23.797Z,1.43
2018-01-05T02:15:52.336Z,3.07
2018-01-05T02:18:22.046Z,1.10
2018-01-05T02:20:50.434Z,1.53
2018-01-05T02:23:20.162Z,0.83
2018-01-05T02:25:48.418Z,3.83
2018-01-05T02:28:18.064Z,6.83
2018-01-05T02:30:46.249Z,3.23
2018-01-05T02:33:15.660Z,2.40
2018-01-05T02:35:44.532Z,0.70
2018-01-05T02:38:14.923Z,0.60
2018-01-05T02:40:43.193Z,0.70
2018-01-05T02:43:11.859Z,0.50
2018-01-05T02:45:40.952Z,1.37
2018-01-05T02:48:10.170Z,0.80
2018-01-05T02:50:39.270Z,0.80
2018-01-05T02:53:08.464Z,1.57
2018-01-05T02:55:37.178Z,0.90
2018-01-05T02:58:06.857Z,0.60
2018-01-05T03:00:36.381Z,0.70
2018-01-05T03:03:04.965Z,1.40
2018-01-05T03:05:33.989Z,2.47
2018-01-05T03:08:03.897Z,2.30
2018-01-05T03:10:33.486Z,2.43
2018-01-05T03:13:02.960Z,1.73
2018-01-05T03:15:31.819Z,3.40
2018-01-05T03:18:01.169Z,2.13
2018-01-05T03:20:29.888Z,1.47
2018-01-05T03:22:58.891Z,2.73
2018-01-05T03:25:27.766Z,5.53
2018-01-05T03:27:56.684Z,2.67
2018-01-05T03:30:25.848Z,1.63
2018-01-05T03:32:55.573Z,4.20
2018-01-05T03:35:23.891Z,7.10
2018-01-05T03:37:53.273Z,4.73
2018-01-05T03:40:21.431Z,5.00
2018-01-05T03:42:50.798Z,2.93
2018-01-05T03:45:19.604Z,6.93
2018-01-05T03:47:49.013Z,2.10
2018-01-05T03:50:17.043Z,3.20
2018-01-05T03:52:47.258Z,6.80
2018-01-05T03:55:18.034Z,7.17
2018-01-05T03:57:46.494Z,4.73
2018-01-05T04:00:15.229Z,5.50
2018-01-05T04:02:43.998Z,5.07
2018-01-05T04:05:12.568Z,16.40
2018-01-05T04:07:41.634Z,6.50
2018-01-05T04:10:11.256Z,7.10
2018-01-05T04:12:40.486Z,5.83
2018-01-05T04:15:08.764Z,8.13
2018-01-05T04:17:38.017Z,6.90
2018-01-05T04:20:06.279Z,5.23
2018-01-05T04:22:37.482Z,7.13
2018-01-05T04:25:07.111Z,7.40
2018-01-05T04:27:36.219Z,6.60
2018-01-05T04:30:05.321Z,5.07
2018-01-05T04:32:33.822Z,10.30
2018-01-05T04:35:01.978Z,11.73
2018-01-05T04:37:30.964Z,8.33
2018-01-05T04:39:59.721Z,7.23
2018-01-05T04:42:29.062Z,7.60
2018-01-05T04:44:57.678Z,5.23
2018-01-05T04:47:26.610Z,10.33
2018-01-05T04:49:54.800Z,5.50
2018-01-05T04:52:23.485Z,9.77
2018-01-05T04:54:51.766Z,6.60
2018-01-05T04:57:20.455Z,4.63
2018-01-05T04:59:49.822Z,9.50
2018-01-05T05:02:18.147Z,5.70
2018-01-05T05:04:47.716Z,8.20
2018-01-05T05:07:18.338Z,9.93
2018-01-05T05:09:47.713Z,8.43
2018-01-05T05:12:16.592Z,6.10
2018-01-05T05:14:45.644Z,5.33
2018-01-05T05:17:14.521Z,4.83
2018-01-05T05:19:42.580Z,7.30
2018-01-05T05:22:11.250Z,6.03
2018-01-05T05:24:39.307Z,4.73
2018-01-05T05:27:08.082Z,10.47
2018-01-05T05:29:36.787Z,6.57
2018-01-05T05:32:05.530Z,3.87
2018-01-05T05:34:33.891Z,3.57
2018-01-05T05:37:02.607Z,5.13
2018-01-05T05:39:31.322Z,5.03
2018-01-05T05:41:59.807Z,7.90
2018-01-05T05:44:29.508Z,3.40
2018-01-05T05:46:59.064Z,4.00
2018-01-05T05:49:28.774Z,4.57
2018-01-05T05:51:58.534Z,7.23
2018-01-05T05:54:27.562Z,7.40
2018-01-05T05:56:56.524Z,5.80
2018-01-05T05:59:24.994Z,12.97
2018-01-05T06:01:53.109Z,9.13
2018-01-05T06:04:21.229Z,5.57
2018-01-05T06:06:49.526Z,4.73
2018-01-05T06:09:18.021Z,5.90
2018-01-05T06:11:47.190Z,5.80
2018-01-05T06:14:16.787Z,11.43
2018-01-05T06:16:46.005Z,6.30
2018-01-05T06:19:14.467Z,6.90
2018-01-05T06:21:43.498Z,6.57
2018-01-05T06:24:11.882Z,5.33
2018-01-05T06:26:40.430Z,2.90
2018-01-05T06:29:10.049Z,6.17
2018-01-05T06:31:39.099Z,5.73
2018-01-05T06:34:07.719Z,6.30
2018-01-05T06:36:36.726Z,8.20
2018-01-05T06:39:05.471Z,2.63
2018-01-05T06:41:33.755Z,3.30
2018-01-05T06:44:02.985Z,1.57
2018-01-05T06:46:31.124Z,5.37
2018-01-05T06:48:59.326Z,4.33
2018-01-05T06:51:28.863Z,2.90
2018-01-05T06:53:57.319Z,4.10
2018-01-05T06:56:25.665Z,2.67
2018-01-05T06:58:54.944Z,2.70
2018-01-05T07:01:23.016Z,3.10
2018-01-05T07:03:51.562Z,3.90
2018-01-05T07:06:19.717Z,2.43
2018-01-05T07:08:50.065Z,2.83
2018-01-05T07:11:18.571Z,3.60
2018-01-05T07:13:46.987Z,1.13
2018-01-05T07:16:15.880Z,0.83
2018-01-05T07:18:44.131Z,0.97
2018-01-05T07:21:12.524Z,1.13
2018-01-05T07:23:41.195Z,1.37
2018-01-05T07:26:09.884Z,1.17
2018-01-05T07:28:38.506Z,3.13
2018-01-05T07:31:07.102Z,4.27
2018-01-05T07:33:35.325Z,2.53
2018-01-05T07:36:04.229Z,2.00
2018-01-05T07:38:32.620Z,2.73
2018-01-05T07:41:02.525Z,2.63
2018-01-05T07:43:31.487Z,2.07
2018-01-05T07:46:00.661Z,2.27
2018-01-05T07:48:29.790Z,4.87
2018-01-05T07:50:58.301Z,3.27
2018-01-05T07:53:26.396Z,4.97
2018-01-05T07:55:54.760Z,3.80
2018-01-05T07:58:23.006Z,6.20
2018-01-05T08:00:51.114Z,6.60
2018-01-05T08:03:21.198Z,6.23
2018-01-05T08:05:49.787Z,4.77
2018-01-05T08:08:18.047Z,6.93
2018-01-05T08:10:46.832Z,7.10
2018-01-05T08:13:15.426Z,2.43
2018-01-05T08:15:44.148Z,9.43
2018-01-05T08:18:13.190Z,3.13
2018-01-05T08:20:42.126Z,4.30
2018-01-05T08:23:10.508Z,5.23
2018-01-05T08:25:39.275Z,3.83
2018-01-05T08:28:08.152Z,5.20
2018-01-05T08:30:36.469Z,5.07
2018-01-05T08:33:05.139Z,7.13
2018-01-05T08:35:33.319Z,5.83
2018-01-05T08:38:01.940Z,1.50
2018-01-05T08:40:30.764Z,4.70
2018-01-05T08:42:59.077Z,3.93
2018-01-05T08:45:27.353Z,2.13
2018-01-05T08:47:56.452Z,4.57
2018-01-05T08:50:26.643Z,3.00
2018-01-05T08:52:55.724Z,2.20
2018-01-05T08:55:24.048Z,3.70
2018-01-05T08:57:52.471Z,1.40
2018-01-05T09:00:21.040Z,3.17
2018-01-05T09:02:49.487Z,2.47
2018-01-05T09:05:19.076Z,2.17
2018-01-05T09:07:48.055Z,2.80
2018-01-05T09:10:17.455Z,2.10
2018-01-05T09:12:46.009Z,1.87
2018-01-05T09:15:15.570Z,6.93
2018-01-05T09:17:45.236Z,3.13
2018-01-05T09:20:14.487Z,5.20
2018-01-05T09:22:43.081Z,2.73
2018-01-05T09:25:11.620Z,1.77
2018-01-05T09:27:41.215Z,4.20
2018-01-05T09:30:09.594Z,1.23
2018-01-05T09:32:38.280Z,1.60
2018-01-05T09:35:08.213Z,1.10
2018-01-05T09:37:36.797Z,1.70
2018-01-05T09:40:06.630Z,1.00
2018-01-05T09:42:34.832Z,0.70
2018-01-05T09:45:03.931Z,2.10
2018-01-05T09:47:32.115Z,2.93
2018-01-05T09:50:00.310Z,1.30
2018-01-05T09:52:28.800Z,1.97
2018-01-05T09:54:57.576Z,1.40
2018-01-05T09:57:26.380Z,2.30
2018-01-05T09:59:55.451Z,1.00
2018-01-05T10:02:24.247Z,2.80
2018-01-05T10:04:52.388Z,2.67
2018-01-05T10:07:21.460Z,2.23
2018-01-05T10:09:49.936Z,1.70
2018-01-05T10:12:18.573Z,1.10
2018-01-05T10:14:46.876Z,1.20
2018-01-05T10:17:16.456Z,1.00
2018-01-05T10:19:45.417Z,1.30
2018-01-05T10:22:15.285Z,2.60
2018-01-05T10:24:43.725Z,1.13
2018-01-05T10:27:12.692Z,1.00
2018-01-05T10:29:41.685Z,2.37
2018-01-05T10:32:09.785Z,1.10
2018-01-05T10:34:38.953Z,2.17
2018-01-05T10:37:07.402Z,1.80
2018-01-05T10:39:36.592Z,1.17
2018-01-05T10:42:04.757Z,3.00
2018-01-05T10:44:33.396Z,1.37
2018-01-05T10:47:01.694Z,1.07
2018-01-05T10:49:30.771Z,0.90
2018-01-05T10:51:59.007Z,4.63
2018-01-05T10:54:27.727Z,1.00
2018-01-05T10:56:55.952Z,3.07
2018-01-05T10:59:24.486Z,2.23
2018-01-05T11:01:53.167Z,0.80
2018-01-05T11:04:22.385Z,0.80
2018-01-05T11:06:51.800Z,1.80
2018-01-05T11:09:21.566Z,1.40
2018-01-05T11:11:50.844Z,1.30
2018-01-05T11:14:19.560Z,0.93
2018-01-05T11:16:48.620Z,1.00
2018-01-05T11:19:17.105Z,1.10
2018-01-05T11:21:45.585Z,1.90
2018-01-05T11:24:15.188Z,1.60
2018-01-05T11:26:44.336Z,1.60
2018-01-05T11:29:13.587Z,3.23
2018-01-05T11:31:41.907Z,1.70
2018-01-05T11:34:10.549Z,1.20
2018-01-05T11:36:39.737Z,1.23
2018-01-05T11:39:08.501Z,2.63
2018-01-05T11:41:37.264Z,2.10
2018-01-05T11:44:05.599Z,1.37
2018-01-05T11:46:36.622Z,1.90
2018-01-05T11:49:05.378Z,1.57
2018-01-05T11:51:34.610Z,1.10
2018-01-05T11:54:03.200Z,6.30
2018-01-05T11:56:32.011Z,4.60
2018-01-05T11:59:03.276Z,1.50
2018-01-05T12:01:31.851Z,1.30
2018-01-05T12:04:01.286Z,1.20
2018-01-05T12:06:30.163Z,0.90
2018-01-05T12:08:58.589Z,1.20
2018-01-05T12:11:28.375Z,2.83
2018-01-05T12:13:56.747Z,1.57
2018-01-05T12:16:25.251Z,1.30
2018-01-05T12:18:54.640Z,1.67
2018-01-05T12:21:22.947Z,5.50
2018-01-05T12:23:51.599Z,1.00
2018-01-05T12:26:21.163Z,7.07
2018-01-05T12:28:50.222Z,3.77
2018-01-05T12:31:20.370Z,2.33
2018-01-05T12:33:49.425Z,3.80
2018-01-05T12:36:17.904Z,4.57
2018-01-05T12:38:46.196Z,4.77
2018-01-05T12:41:14.887Z,1.83
2018-01-05T12:43:44.033Z,1.10
2018-01-05T12:46:12.466Z,3.43
2018-01-05T12:48:42.081Z,2.80
2018-01-05T12:51:11.759Z,2.60
2018-01-05T12:53:40.785Z,3.20
2018-01-05T12:56:09.016Z,1.60
2018-01-05T12:58:38.054Z,1.23
2018-01-05T13:01:07.753Z,0.80
2018-01-05T13:03:36.302Z,0.80
2018-01-05T13:21:27.023Z,2.57
2018-01-05T13:23:57.101Z,2.80
2018-01-05T13:26:25.583Z,1.73
2018-01-05T13:28:54.695Z,1.73
2018-01-05T13:31:26.262Z,1.43
2018-01-05T13:33:55.613Z,2.37
2018-01-05T13:36:24.056Z,1.50
2018-01-05T13:38:53.132Z,2.03
2018-01-05T13:41:22.264Z,1.97
2018-01-05T13:43:51.661Z,1.20
2018-01-05T13:46:20.277Z,1.83
2018-01-05T13:48:48.773Z,1.23
2018-01-05T13:51:17.112Z,2.37
2018-01-05T13:53:46.227Z,2.13
2018-01-05T13:56:16.056Z,2.10
2018-01-05T13:58:45.572Z,2.13
2018-01-05T14:01:15.108Z,1.40
2018-01-05T14:03:43.672Z,1.30
2018-01-05T14:06:12.236Z,2.50
2018-01-05T14:08:41.593Z,1.03
2018-01-05T14:11:10.241Z,1.20
2018-01-05T14:13:38.897Z,1.33
2018-01-05T14:16:07.452Z,1.20
2018-01-05T14:18:35.621Z,1.13
2018-01-05T14:21:04.870Z,2.53
2018-01-05T14:23:33.231Z,3.13
2018-01-05T14:26:02.864Z,5.90
2018-01-05T14:28:31.586Z,1.50
2018-01-05T14:30:59.675Z,2.40
2018-01-05T14:33:28.294Z,2.30
2018-01-05T14:35:57.750Z,1.17
2018-01-05T14:38:25.957Z,1.97
2018-01-05T14:40:55.022Z,1.50
2018-01-05T14:43:24.577Z,1.20
2018-01-05T14:45:53.403Z,1.20
2018-01-05T14:48:22.070Z,2.30
2018-01-05T14:50:50.539Z,2.87
2018-01-05T14:53:18.723Z,2.37
2018-01-05T14:55:47.185Z,1.70
2018-01-05T14:58:15.910Z,2.30
2018-01-05T15:00:44.482Z,2.00
2018-01-05T15:03:13.585Z,2.50
2018-01-05T15:05:41.857Z,1.80
2018-01-05T15:08:10.695Z,3.97
2018-01-05T15:10:39.358Z,1.97
2018-01-05T15:13:07.850Z,2.63
2018-01-05T15:15:37.790Z,2.97
2018-01-05T15:18:06.638Z,3.10
2018-01-05T15:20:35.532Z,2.10
2018-01-05T15:23:06.659Z,1.60
2018-01-05T15:25:36.623Z,1.87
2018-01-05T15:28:05.380Z,1.80
2018-01-05T15:30:34.810Z,5.20
2018-01-05T15:33:03.671Z,4.77
2018-01-05T15:35:32.212Z,6.20
2018-01-05T15:38:01.288Z,4.57
2018-01-05T15:40:31.664Z,7.20
2018-01-05T15:43:01.542Z,3.20
2018-01-05T15:45:31.467Z,5.27
2018-01-05T15:48:01.808Z,3.50
2018-01-05T15:50:31.329Z,5.10
2018-01-05T15:53:00.845Z,5.47
2018-01-05T15:55:29.221Z,4.07
2018-01-05T15:57:59.084Z,27.73
2018-01-05T16:00:28.515Z,7.93
2018-01-05T16:02:57.534Z,8.73
2018-01-05T16:05:26.199Z,4.43
2018-01-05T16:07:54.898Z,4.30
2018-01-05T16:10:23.722Z,3.73
2018-01-05T16:12:52.614Z,3.03
2018-01-05T16:15:21.602Z,4.63
2018-01-05T16:17:49.800Z,6.37
2018-01-05T16:20:18.676Z,4.40
2018-01-05T16:22:48.631Z,4.53
2018-01-05T16:25:17.337Z,4.67
2018-01-05T16:27:45.870Z,3.23
2018-01-05T16:30:14.950Z,3.20
2018-01-05T16:32:44.462Z,4.53
2018-01-05T16:35:13.463Z,3.40
2018-01-05T16:37:42.925Z,5.30
2018-01-05T16:40:11.315Z,3.90
2018-01-05T16:42:39.611Z,3.17
2018-01-05T16:45:08.350Z,5.47
2018-01-05T16:47:36.660Z,4.90
2018-01-05T16:50:05.118Z,4.73
2018-01-05T16:52:33.820Z,5.93
2018-01-05T16:55:03.028Z,4.10
2018-01-05T16:57:31.824Z,4.97
2018-01-05T17:00:00.065Z,4.93
2018-01-05T17:02:28.563Z,5.20
2018-01-05T17:04:58.737Z,3.90
2018-01-05T17:07:26.927Z,4.60
2018-01-05T17:09:55.457Z,3.70
2018-01-05T17:12:24.261Z,3.40
2018-01-05T17:14:52.368Z,2.97
2018-01-05T17:17:22.572Z,4.17
2018-01-05T17:19:51.391Z,6.17
2018-01-05T17:22:20.018Z,5.67
2018-01-05T17:24:48.995Z,4.17
2018-01-05T17:27:18.958Z,3.80
2018-01-05T17:29:48.432Z,5.03
2018-01-05T17:32:16.598Z,10.73
2018-01-05T17:34:46.174Z,4.83
2018-01-05T17:37:15.832Z,10.37
2018-01-05T17:39:44.169Z,6.53
2018-01-05T17:42:12.228Z,8.00
2018-01-05T17:44:41.300Z,6.50
2018-01-05T17:47:10.944Z,10.90
2018-01-05T17:49:40.135Z,8.10
2018-01-05T17:52:09.810Z,6.77
2018-01-05T17:54:38.705Z,9.93
2018-01-05T17:57:07.837Z,7.20
2018-01-05T17:59:36.990Z,7.57
2018-01-05T18:02:05.454Z,11.77
2018-01-05T18:04:34.164Z,10.63
2018-01-05T18:07:03.368Z,8.50
2018-01-05T18:09:32.774Z,9.53
2018-01-05T18:12:01.928Z,12.07
2018-01-05T18:14:30.389Z,8.13
2018-01-05T18:16:59.354Z,10.40
2018-01-05T18:19:27.710Z,12.33
2018-01-05T18:21:57.408Z,11.03
2018-01-05T18:24:26.325Z,9.33
2018-01-05T18:26:55.009Z,10.50
2018-01-05T18:29:24.069Z,8.50
2018-01-05T18:31:52.993Z,6.57
2018-01-05T18:34:21.421Z,6.83
2018-01-05T18:36:51.278Z,9.73
2018-01-05T18:39:19.960Z,13.27
2018-01-05T18:41:48.140Z,6.27
2018-01-05T18:44:17.251Z,7.67
2018-01-05T18:46:45.416Z,8.23
2018-01-05T18:49:14.652Z,12.70
2018-01-05T18:51:43.165Z,10.87
2018-01-05T18:54:11.820Z,8.87
2018-01-05T18:56:41.338Z,9.10
2018-01-05T18:59:10.036Z,9.80
2018-01-05T19:01:40.466Z,8.70
2018-01-05T19:04:09.321Z,7.73
2018-01-05T19:06:38.461Z,10.70
2018-01-05T19:09:06.629Z,11.20
2018-01-05T19:11:35.691Z,9.50
2018-01-05T19:14:04.664Z,8.90
2018-01-05T19:16:33.305Z,7.90
2018-01-05T19:19:02.827Z,10.87
2018-01-05T19:21:31.027Z,10.83
2018-01-05T19:23:59.590Z,13.47
2018-01-05T19:26:29.135Z,12.97
2018-01-05T19:28:58.282Z,10.53
2018-01-05T19:31:27.337Z,9.83
2018-01-05T19:33:55.598Z,5.53
2018-01-05T19:36:25.265Z,7.37
2018-01-05T19:38:54.509Z,9.10
2018-01-05T19:41:24.201Z,9.27
2018-01-05T19:43:53.345Z,8.07
2018-01-05T19:46:21.680Z,10.10
2018-01-05T19:48:51.157Z,12.80
2018-01-05T19:51:20.621Z,11.03
2018-01-05T19:53:49.406Z,13.53
2018-01-05T19:56:18.608Z,12.17
2018-01-05T19:58:48.356Z,15.87
2018-01-05T20:01:18.477Z,12.07
2018-01-05T20:03:47.214Z,12.57
2018-01-05T20:06:17.200Z,12.63
2018-01-05T20:08:46.797Z,20.60
2018-01-05T20:11:15.639Z,27.33
2018-01-05T20:13:44.419Z,21.53
2018-01-05T20:16:13.099Z,13.50
2018-01-05T20:18:41.721Z,14.87
2018-01-05T20:21:10.158Z,14.33
2018-01-05T20:23:38.537Z,15.57
2018-01-05T20:26:07.520Z,14.10
2018-01-05T20:28:36.560Z,16.90
2018-01-05T20:31:04.980Z,14.43
2018-01-05T20:33:33.682Z,15.20
2018-01-05T20:36:01.989Z,23.60
2018-01-05T20:38:31.994Z,14.53
2018-01-05T20:41:01.111Z,15.43
2018-01-05T20:43:30.813Z,15.00
2018-01-05T20:46:00.151Z,19.73
2018-01-05T20:48:28.711Z,12.00
2018-01-05T20:50:56.930Z,11.13
2018-01-05T20:53:25.676Z,9.47
2018-01-05T20:55:54.232Z,9.23
2018-01-05T20:58:23.214Z,11.00
2018-01-05T21:00:52.208Z,9.90
2018-01-05T21:03:21.861Z,10.27
2018-01-05T21:05:50.775Z,10.87
2018-01-05T21:08:19.634Z,7.00
2018-01-05T21:10:48.786Z,11.90
2018-01-05T21:13:18.077Z,7.63
2018-01-05T21:15:47.217Z,21.87
2018-01-05T21:18:15.419Z,8.57
2018-01-05T21:20:43.825Z,8.87
2018-01-05T21:23:12.895Z,8.70
2018-01-05T21:25:41.807Z,7.50
2018-01-05T21:28:10.413Z,11.43
2018-01-05T21:30:40.063Z,6.37
2018-01-05T21:33:09.438Z,4.20
2018-01-05T21:35:39.901Z,7.17
2018-01-05T21:38:08.615Z,6.40
2018-01-05T21:40:37.894Z,5.33
2018-01-05T21:43:07.542Z,5.60
2018-01-05T21:45:37.752Z,4.50
2018-01-05T21:48:06.142Z,10.67
2018-01-05T21:50:34.849Z,4.93
2018-01-05T21:53:03.989Z,5.40
2018-01-05T21:55:32.280Z,7.30
2018-01-05T21:58:02.902Z,8.30
2018-01-05T22:00:31.121Z,7.23
2018-01-05T22:03:00.579Z,10.53
2018-01-05T22:05:30.782Z,8.60
2018-01-05T22:07:59.122Z,13.87
2018-01-05T22:10:28.181Z,9.43
2018-01-05T22:12:58.930Z,5.80
2018-01-05T22:15:27.718Z,8.57
2018-01-05T22:17:56.387Z,9.00
2018-01-05T22:20:25.825Z,7.37
2018-01-05T22:22:54.428Z,8.67
2018-01-05T22:25:23.689Z,7.50
2018-01-05T22:27:53.378Z,9.00
2018-01-05T22:30:22.057Z,9.83
2018-01-05T22:32:51.560Z,9.60
2018-01-05T22:35:20.658Z,7.23
2018-01-05T22:37:49.738Z,5.60
2018-01-05T22:40:19.932Z,7.20
2018-01-05T22:42:48.939Z,6.20
2018-01-05T22:45:18.587Z,8.10
2018-01-05T22:47:47.733Z,8.80
2018-01-05T22:50:16.973Z,6.00
2018-01-05T22:52:45.710Z,5.87
2018-01-05T22:55:14.099Z,6.67
2018-01-05T22:57:43.321Z,6.00
2018-01-05T23:00:14.580Z,4.20
2018-01-05T23:02:43.720Z,5.27
2018-01-05T23:05:12.002Z,3.60
2018-01-05T23:07:40.456Z,4.83
2018-01-05T23:10:09.577Z,4.60
2018-01-05T23:12:40.106Z,4.93
2018-01-05T23:15:09.184Z,4.03
2018-01-05T23:17:37.404Z,5.57
2018-01-05T23:20:07.020Z,4.03
2018-01-05T23:22:35.507Z,10.93
2018-01-05T23:25:04.142Z,6.07
2018-01-05T23:27:32.758Z,5.40
2018-01-05T23:30:01.732Z,4.47
2018-01-05T23:32:30.920Z,3.43
2018-01-05T23:34:59.759Z,3.13
2018-01-05T23:37:28.940Z,3.30
2018-01-05T23:39:57.499Z,3.47
2018-01-05T23:42:26.744Z,4.37
2018-01-05T23:44:55.980Z,3.57
2018-01-05T23:47:25.349Z,2.90
2018-01-05T23:49:54.526Z,4.00
2018-01-05T23:52:22.697Z,4.70
2018-01-05T23:54:51.431Z,4.20
2018-01-05T23:57:19.990Z,3.97
2018-01-05T23:59:48.472Z,5.20
